createdAt,value
2019-04-05T00:02:23.954Z,9.03
2019-04-05T00:04:51.410Z,9.47
2019-04-05T00:07:18.910Z,8.60
2019-04-05T00:09:46.369Z,8.20
2019-04-05T00:12:13.873Z,8.87
2019-04-05T00:14:41.334Z,9.40
2019-04-05T00:17:08.844Z,8.93
2019-04-05T00:19:36.303Z,8.80
2019-04-05T00:22:03.799Z,10.03
2019-04-05T00:24:31.271Z,10.20
2019-04-05T00:26:58.765Z,9.93
2019-04-05T00:29:26.258Z,10.93
2019-04-05T00:31:53.764Z,9.87
2019-04-05T00:34:21.270Z,10.73
2019-04-05T00:36:48.774Z,10.37
2019-04-05T00:39:16.306Z,10.83
2019-04-05T00:41:43.774Z,10.40
2019-04-05T00:44:11.235Z,10.13
2019-04-05T00:46:38.738Z,9.63
2019-04-05T00:49:06.240Z,10.07
2019-04-05T00:51:33.703Z,11.27
2019-04-05T00:54:01.197Z,11.43
2019-04-05T00:56:28.713Z,11.67
2019-04-05T00:58:56.208Z,12.73
2019-04-05T01:01:23.717Z,12.90
2019-04-05T01:03:51.224Z,15.23
2019-04-05T01:06:18.728Z,15.07
2019-04-05T01:08:46.191Z,10.87
2019-04-05T01:11:13.696Z,13.67
2019-04-05T01:13:41.157Z,11.53
2019-04-05T01:16:08.666Z,11.07
2019-04-05T01:18:36.134Z,11.57
2019-04-05T01:21:03.628Z,10.87
2019-04-05T01:23:31.136Z,10.60
2019-04-05T01:25:58.608Z,10.80
2019-04-05T01:28:26.118Z,12.07
2019-04-05T01:30:53.632Z,12.67
2019-04-05T01:33:21.110Z,11.27
2019-04-05T01:35:48.621Z,10.00
2019-04-05T01:38:16.124Z,10.37
2019-04-05T01:40:43.589Z,10.30
2019-04-05T01:43:11.099Z,9.47
2019-04-05T01:45:38.563Z,10.30
2019-04-05T01:48:06.024Z,9.97
2019-04-05T01:50:33.538Z,10.47
2019-04-05T01:53:01.012Z,10.47
2019-04-05T01:55:28.516Z,11.53
2019-04-05T01:57:55.987Z,11.57
2019-04-05T02:00:23.497Z,11.23
2019-04-05T02:02:50.957Z,10.97
2019-04-05T02:05:18.466Z,10.47
2019-04-05T02:07:45.977Z,10.50
2019-04-05T02:10:13.491Z,11.50
2019-04-05T02:12:40.954Z,11.00
2019-04-05T02:15:08.427Z,11.93
2019-04-05T02:17:36.155Z,10.20
2019-04-05T02:20:03.401Z,10.80
2019-04-05T02:22:30.929Z,10.83
2019-04-05T02:24:58.434Z,10.40
2019-04-05T02:27:25.942Z,10.03
2019-04-05T02:29:53.423Z,9.60
2019-04-05T02:32:20.929Z,9.47
2019-04-05T02:34:48.384Z,9.77
2019-04-05T02:37:15.855Z,9.60
2019-04-05T02:39:43.372Z,10.30
2019-04-05T02:42:10.840Z,10.30
2019-04-05T02:44:38.372Z,10.07
2019-04-05T02:47:05.830Z,9.07
2019-04-05T02:49:33.278Z,8.90
2019-04-05T02:52:00.766Z,10.37
2019-04-05T02:54:28.237Z,9.83
2019-04-05T02:56:55.648Z,9.77
2019-04-05T02:59:23.123Z,9.30
2019-04-05T03:01:50.540Z,9.93
2019-04-05T03:04:17.987Z,9.57
2019-04-05T03:06:45.425Z,9.60
2019-04-05T03:09:12.854Z,9.20
2019-04-05T03:11:40.318Z,9.77
2019-04-05T03:14:07.730Z,9.40
2019-04-05T03:16:41.020Z,9.73
2019-04-05T03:19:02.612Z,10.93
2019-04-05T03:21:30.026Z,9.57
2019-04-05T03:23:57.478Z,10.50
2019-04-05T03:26:24.925Z,9.27
2019-04-05T03:28:52.381Z,10.23
2019-04-05T03:31:24.498Z,10.70
2019-04-05T03:33:47.236Z,9.20
2019-04-05T03:36:14.686Z,10.40
2019-04-05T03:38:42.091Z,9.50
2019-04-05T03:41:09.533Z,10.70
2019-04-05T03:43:36.951Z,10.73
2019-04-05T03:46:04.398Z,10.23
2019-04-05T03:48:31.825Z,10.63
2019-04-05T03:50:59.245Z,10.57
2019-04-05T03:53:26.680Z,11.33
2019-04-05T03:55:54.111Z,11.07
2019-04-05T03:58:21.551Z,10.50
2019-04-05T04:00:48.966Z,11.97
2019-04-05T04:03:16.422Z,12.77
2019-04-05T04:05:43.834Z,12.37
2019-04-05T04:08:11.316Z,12.47
2019-04-05T04:10:38.747Z,13.43
2019-04-05T04:13:06.203Z,12.90
2019-04-05T04:15:33.602Z,11.73
2019-04-05T04:18:01.045Z,14.87
2019-04-05T04:20:33.977Z,14.87
2019-04-05T04:23:01.417Z,14.27
2019-04-05T04:25:28.831Z,13.83
2019-04-05T04:27:56.271Z,13.43
2019-04-05T04:30:23.700Z,14.00
2019-04-05T04:32:51.154Z,14.63
2019-04-05T04:35:18.567Z,13.10
2019-04-05T04:37:45.993Z,13.77
2019-04-05T04:40:13.421Z,12.00
2019-04-05T04:42:40.846Z,11.90
2019-04-05T04:45:12.546Z,12.00
2019-04-05T04:47:35.720Z,11.07
2019-04-05T04:50:03.169Z,12.27
2019-04-05T04:52:31.506Z,11.73
2019-04-05T04:54:58.028Z,11.07
2019-04-05T04:57:25.464Z,11.17
2019-04-05T04:59:52.882Z,12.03
2019-04-05T05:02:20.298Z,12.13
2019-04-05T05:04:47.744Z,12.83
2019-04-05T05:07:15.257Z,13.60
2019-04-05T05:09:42.663Z,12.50
2019-04-05T05:12:10.077Z,12.30
2019-04-05T05:14:37.521Z,12.40
2019-04-05T05:17:04.937Z,11.73
2019-04-05T05:19:32.373Z,11.57
2019-04-05T05:21:59.829Z,11.43
2019-04-05T05:24:27.297Z,12.33
2019-04-05T05:26:54.712Z,12.27
2019-04-05T05:29:22.156Z,12.73
2019-04-05T05:31:49.568Z,19.27
2019-04-05T05:34:16.986Z,13.20
2019-04-05T05:36:44.435Z,11.67
2019-04-05T05:39:11.870Z,12.63
2019-04-05T05:41:39.301Z,12.20
2019-04-05T05:44:06.789Z,11.63
2019-04-05T05:46:34.213Z,11.90
2019-04-05T05:49:01.654Z,13.70
2019-04-05T05:51:29.073Z,16.23
2019-04-05T05:53:56.503Z,20.07
2019-04-05T05:56:23.948Z,17.83
2019-04-05T05:58:51.363Z,16.43
2019-04-05T06:01:18.818Z,17.07
2019-04-05T06:03:46.235Z,17.63
2019-04-05T06:06:13.666Z,19.30
2019-04-05T06:08:41.085Z,19.73
2019-04-05T06:11:08.495Z,19.97
2019-04-05T06:13:35.942Z,20.50
2019-04-05T06:16:03.391Z,19.77
2019-04-05T06:18:30.804Z,19.73
2019-04-05T06:20:58.240Z,19.63
2019-04-05T06:23:33.638Z,19.50
2019-04-05T06:25:53.187Z,20.10
2019-04-05T06:28:20.540Z,19.97
2019-04-05T06:30:48.805Z,18.47
2019-04-05T06:33:16.258Z,18.13
2019-04-05T06:35:43.667Z,15.63
2019-04-05T06:38:11.134Z,17.77
2019-04-05T06:40:41.137Z,15.30
2019-04-05T06:43:06.968Z,16.50
2019-04-05T06:45:33.448Z,14.77
2019-04-05T06:48:00.904Z,13.17
2019-04-05T06:50:28.385Z,15.37
2019-04-05T06:52:55.806Z,15.00
2019-04-05T06:55:23.263Z,13.23
2019-04-05T06:57:50.714Z,12.60
2019-04-05T07:00:18.137Z,14.10
2019-04-05T07:02:45.560Z,14.93
2019-04-05T07:05:13.038Z,14.00
2019-04-05T07:07:40.489Z,13.47
2019-04-05T07:10:07.903Z,13.80
2019-04-05T07:12:35.348Z,13.83
2019-04-05T07:15:02.758Z,13.03
2019-04-05T07:17:30.219Z,12.93
2019-04-05T07:19:57.636Z,12.43
2019-04-05T07:22:35.816Z,11.27
2019-04-05T07:24:52.495Z,12.70
2019-04-05T07:27:19.955Z,13.33
2019-04-05T07:29:47.421Z,11.67
2019-04-05T07:32:14.865Z,12.40
2019-04-05T07:34:42.309Z,12.87
2019-04-05T07:37:09.721Z,14.07
2019-04-05T07:39:37.181Z,13.50
2019-04-05T07:42:04.589Z,13.57
2019-04-05T07:44:32.037Z,14.43
2019-04-05T07:46:59.494Z,12.77
2019-04-05T07:49:26.959Z,13.30
2019-04-05T07:51:54.369Z,14.00
2019-04-05T07:54:21.783Z,13.17
2019-04-05T07:56:49.234Z,13.53
2019-04-05T07:59:16.649Z,12.90
2019-04-05T08:01:44.092Z,12.83
2019-04-05T08:04:11.497Z,12.70
2019-04-05T08:06:38.948Z,13.37
2019-04-05T08:09:06.356Z,13.73
2019-04-05T08:11:33.795Z,13.27
2019-04-05T08:14:01.219Z,12.40
2019-04-05T08:16:28.653Z,12.97
2019-04-05T08:18:58.187Z,14.07
2019-04-05T08:21:23.506Z,15.33
2019-04-05T08:23:51.020Z,12.17
2019-04-05T08:26:18.378Z,11.67
2019-04-05T08:28:45.787Z,10.23
2019-04-05T08:31:14.649Z,11.20
2019-04-05T08:33:40.695Z,8.60
2019-04-05T08:36:08.092Z,9.13
2019-04-05T08:38:35.559Z,9.40
2019-04-05T08:41:02.977Z,9.97
2019-04-05T08:43:30.387Z,9.80
2019-04-05T08:45:57.825Z,10.23
2019-04-05T08:48:25.245Z,8.43
2019-04-05T08:50:52.635Z,7.73
2019-04-05T08:53:20.090Z,9.30
2019-04-05T08:55:47.514Z,10.13
2019-04-05T08:58:14.946Z,7.77
2019-04-05T09:00:42.354Z,7.23
2019-04-05T09:03:11.939Z,7.07
2019-04-05T09:05:37.222Z,5.50
2019-04-05T09:08:04.653Z,6.57
2019-04-05T09:10:32.082Z,6.30
2019-04-05T09:12:59.525Z,6.97
2019-04-05T09:15:26.935Z,7.73
2019-04-05T09:17:54.369Z,7.13
2019-04-05T09:20:21.775Z,8.17
2019-04-05T09:22:49.201Z,7.73
2019-04-05T09:25:19.608Z,8.03
2019-04-05T09:27:44.038Z,8.60
2019-04-05T09:30:11.434Z,8.73
2019-04-05T09:32:38.860Z,8.80
2019-04-05T09:35:06.268Z,8.53
2019-04-05T09:37:33.694Z,7.77
2019-04-05T09:40:01.123Z,8.03
2019-04-05T09:42:28.558Z,7.80
2019-04-05T09:44:55.951Z,8.87
2019-04-05T09:47:23.377Z,8.30
2019-04-05T09:49:50.796Z,9.37
2019-04-05T09:52:18.214Z,8.33
2019-04-05T09:54:45.620Z,8.07
2019-04-05T09:57:13.074Z,8.67
2019-04-05T09:59:40.492Z,9.13
2019-04-05T10:02:07.928Z,9.07
2019-04-05T10:04:35.333Z,8.13
2019-04-05T10:07:02.772Z,8.20
2019-04-05T10:09:30.196Z,8.73
2019-04-05T10:11:57.604Z,8.43
2019-04-05T10:14:25.034Z,9.67
2019-04-05T10:16:52.441Z,9.77
2019-04-05T10:19:19.870Z,9.77
2019-04-05T10:21:47.275Z,9.43
2019-04-05T10:24:14.707Z,9.60
2019-04-05T10:26:42.136Z,9.33
2019-04-05T10:29:09.582Z,10.30
2019-04-05T10:31:36.993Z,11.03
2019-04-05T10:34:04.405Z,11.03
2019-04-05T10:36:31.846Z,11.57
2019-04-05T10:38:59.258Z,10.60
2019-04-05T10:41:26.668Z,8.47
2019-04-05T10:43:54.118Z,9.77
2019-04-05T10:46:21.521Z,9.87
2019-04-05T10:48:48.973Z,11.07
2019-04-05T10:51:16.383Z,11.03
2019-04-05T10:53:43.794Z,11.43
2019-04-05T10:56:11.241Z,12.27
2019-04-05T10:58:38.665Z,11.50
2019-04-05T11:01:06.078Z,11.47
2019-04-05T11:03:33.527Z,12.03
2019-04-05T11:06:00.947Z,13.47
2019-04-05T11:08:28.350Z,13.93
2019-04-05T11:10:55.775Z,13.63
2019-04-05T11:13:23.186Z,13.63
2019-04-05T11:15:50.638Z,15.77
2019-04-05T11:18:18.042Z,15.43
2019-04-05T11:20:48.991Z,15.70
2019-04-05T11:23:12.888Z,15.90
2019-04-05T11:25:40.320Z,18.90
2019-04-05T11:28:07.748Z,17.90
2019-04-05T11:30:44.050Z,16.63
2019-04-05T11:33:11.518Z,17.70
2019-04-05T11:35:38.923Z,18.00
2019-04-05T11:38:06.356Z,16.87
2019-04-05T11:40:33.769Z,18.07
2019-04-05T11:43:01.211Z,17.37
2019-04-05T11:45:28.631Z,17.50
2019-04-05T11:47:57.706Z,18.37
2019-04-05T11:50:33.772Z,17.13
2019-04-05T11:52:50.904Z,18.13
2019-04-05T11:55:18.912Z,16.97
2019-04-05T11:57:45.737Z,17.50
2019-04-05T12:00:13.163Z,15.50
2019-04-05T12:02:40.597Z,16.97
2019-04-05T12:05:08.029Z,16.70
2019-04-05T12:07:35.448Z,16.50
2019-04-05T12:10:02.881Z,16.00
2019-04-05T12:12:30.288Z,16.57
2019-04-05T12:14:57.713Z,17.90
2019-04-05T12:17:25.150Z,18.07
2019-04-05T12:19:52.598Z,17.60
2019-04-05T12:22:20.199Z,16.73
2019-04-05T12:24:47.746Z,19.20
2019-04-05T12:27:14.894Z,17.23
2019-04-05T12:29:42.294Z,19.37
2019-04-05T12:32:09.731Z,19.97
2019-04-05T12:34:37.173Z,20.33
2019-04-05T12:37:04.650Z,18.80
2019-04-05T12:39:32.030Z,17.57
2019-04-05T12:41:59.432Z,17.87
2019-04-05T12:44:26.865Z,19.97
2019-04-05T12:46:54.304Z,18.83
2019-04-05T12:49:21.738Z,17.60
2019-04-05T12:51:49.153Z,18.67
2019-04-05T12:54:16.592Z,16.70
2019-04-05T12:56:44.030Z,17.90
2019-04-05T12:59:11.434Z,17.50
2019-04-05T13:01:38.874Z,17.33
2019-04-05T13:04:06.283Z,15.60
2019-04-05T13:06:33.738Z,16.17
2019-04-05T13:09:01.140Z,16.47
2019-04-05T13:11:28.576Z,16.37
2019-04-05T13:13:56.371Z,17.57
2019-04-05T13:16:23.394Z,14.20
2019-04-05T13:18:50.835Z,15.87
2019-04-05T13:21:18.288Z,15.97
2019-04-05T13:23:45.713Z,16.23
2019-04-05T13:26:13.135Z,16.37
2019-04-05T13:28:40.576Z,16.93
2019-04-05T13:31:07.983Z,17.20
2019-04-05T13:33:35.418Z,17.47
2019-04-05T13:36:02.869Z,16.77
2019-04-05T13:38:30.528Z,17.00
2019-04-05T13:41:01.301Z,15.50
2019-04-05T13:43:25.148Z,15.10
2019-04-05T13:45:52.580Z,15.47
2019-04-05T13:48:19.996Z,16.70
2019-04-05T13:50:47.406Z,16.17
2019-04-05T13:53:14.859Z,17.27
2019-04-05T13:55:42.285Z,15.87
2019-04-05T13:58:11.258Z,15.77
2019-04-05T14:00:37.142Z,15.57
2019-04-05T14:03:04.579Z,15.33
2019-04-05T14:05:32.011Z,15.30
2019-04-05T14:08:09.751Z,14.77
2019-04-05T14:10:26.868Z,15.03
2019-04-05T14:12:54.289Z,15.37
2019-04-05T14:15:21.720Z,16.23
2019-04-05T14:17:49.452Z,14.97
2019-04-05T14:20:18.991Z,14.73
2019-04-05T14:22:44.016Z,16.23
2019-04-05T14:25:12.312Z,18.00
2019-04-05T14:27:39.772Z,18.63
2019-04-05T14:30:07.175Z,18.00
2019-04-05T14:32:35.044Z,17.97
2019-04-05T14:35:02.081Z,17.40
2019-04-05T14:37:29.500Z,17.70
2019-04-05T14:39:59.630Z,18.73
2019-04-05T14:42:29.471Z,17.23
2019-04-05T14:44:54.508Z,17.60
2019-04-05T14:47:21.962Z,18.67
2019-04-05T14:49:49.368Z,19.90
2019-04-05T14:52:16.960Z,19.17
2019-04-05T14:54:44.375Z,19.10
2019-04-05T14:57:11.849Z,20.53
2019-04-05T14:59:39.274Z,20.13
2019-04-05T15:02:06.708Z,18.57
2019-04-05T15:04:34.116Z,18.77
2019-04-05T15:07:01.553Z,18.87
2019-04-05T15:09:28.994Z,19.43
2019-04-05T15:11:58.356Z,21.20
2019-04-05T15:14:23.850Z,20.83
2019-04-05T15:16:51.261Z,22.07
2019-04-05T15:19:18.695Z,22.80
2019-04-05T15:21:46.123Z,22.47
2019-04-05T15:24:15.976Z,22.97
2019-04-05T15:26:41.006Z,21.40
2019-04-05T15:29:08.438Z,21.00
2019-04-05T15:31:35.869Z,21.90
2019-04-05T15:34:03.282Z,20.63
2019-04-05T15:36:31.669Z,21.50
2019-04-05T15:39:01.119Z,23.77
2019-04-05T15:41:25.574Z,22.20
2019-04-05T15:43:52.977Z,22.43
2019-04-05T15:46:20.449Z,21.40
2019-04-05T15:48:49.627Z,21.83
2019-04-05T15:51:15.270Z,23.77
2019-04-05T15:53:42.680Z,22.50
2019-04-05T15:56:10.171Z,21.83
2019-04-05T15:58:37.594Z,22.70
2019-04-05T16:01:06.954Z,21.47
2019-04-05T16:03:33.115Z,23.00
2019-04-05T16:05:59.917Z,21.13
2019-04-05T16:08:27.346Z,20.57
2019-04-05T16:10:54.761Z,18.40
2019-04-05T16:13:22.229Z,19.73
2019-04-05T16:15:49.629Z,19.73
2019-04-05T16:18:17.064Z,21.10
2019-04-05T16:20:44.512Z,19.80
2019-04-05T16:23:11.960Z,20.10
2019-04-05T16:25:39.466Z,19.90
2019-04-05T16:28:06.927Z,18.93
2019-04-05T16:30:34.844Z,18.53
2019-04-05T16:33:02.354Z,19.17
2019-04-05T16:35:29.881Z,18.13
2019-04-05T16:37:57.362Z,17.43
2019-04-05T16:40:24.761Z,18.17
2019-04-05T16:43:01.891Z,19.80
2019-04-05T16:45:19.648Z,19.53
2019-04-05T16:47:47.077Z,20.90
2019-04-05T16:50:14.579Z,21.43
2019-04-05T16:52:45.029Z,21.63
2019-04-05T16:55:09.534Z,21.87
2019-04-05T16:57:37.003Z,23.03
2019-04-05T17:00:07.292Z,24.50
2019-04-05T17:02:34.775Z,23.43
2019-04-05T17:05:02.243Z,23.00
2019-04-05T17:07:29.724Z,23.70
2019-04-05T17:09:57.155Z,24.40
2019-04-05T17:12:24.630Z,25.03
2019-04-05T17:14:52.028Z,25.10
2019-04-05T17:17:19.540Z,26.53
2019-04-05T17:19:47.035Z,29.12
2019-04-05T17:22:14.469Z,26.37
2019-04-05T17:24:41.902Z,25.00
2019-04-05T17:27:09.323Z,26.80
2019-04-05T17:29:36.900Z,25.60
2019-04-05T17:32:04.242Z,26.90
2019-04-05T17:34:31.716Z,24.03
2019-04-05T17:36:59.151Z,24.27
2019-04-05T17:39:26.581Z,22.87
2019-04-05T17:41:54.039Z,23.73
2019-04-05T17:44:21.560Z,23.10
2019-04-05T17:46:48.954Z,24.67
2019-04-05T17:49:16.370Z,23.17
2019-04-05T17:51:43.813Z,24.57
2019-04-05T17:54:11.259Z,25.53
2019-04-05T17:56:38.760Z,23.67
2019-04-05T17:59:06.189Z,25.87
2019-04-05T18:01:33.676Z,26.60
2019-04-05T18:04:01.103Z,27.33
2019-04-05T18:06:28.672Z,27.10
2019-04-05T18:08:56.197Z,28.03
2019-04-05T18:11:23.674Z,26.77
2019-04-05T18:13:51.141Z,26.87
2019-04-05T18:16:18.643Z,27.07
2019-04-05T18:18:46.141Z,27.17
2019-04-05T18:21:13.670Z,26.57
2019-04-05T18:23:41.113Z,25.70
2019-04-05T18:26:08.522Z,27.90
2019-04-05T18:28:36.038Z,25.47
2019-04-05T18:31:03.541Z,26.77
2019-04-05T18:33:30.960Z,25.27
2019-04-05T18:35:58.481Z,25.60
2019-04-05T18:38:25.926Z,27.27
2019-04-05T18:40:53.428Z,26.60
2019-04-05T18:43:20.845Z,26.13
2019-04-05T18:45:48.294Z,27.47
2019-04-05T18:48:15.722Z,29.07
2019-04-05T18:50:43.172Z,26.40
2019-04-05T18:53:10.661Z,26.50
2019-04-05T18:55:38.095Z,26.77
2019-04-05T18:58:05.552Z,27.30
2019-04-05T19:00:33.000Z,26.20
2019-04-05T19:03:00.459Z,24.07
2019-04-05T19:05:27.888Z,25.23
2019-04-05T19:07:55.308Z,25.13
2019-04-05T19:10:22.764Z,26.47
2019-04-05T19:12:50.300Z,26.97
2019-04-05T19:15:17.643Z,27.20
2019-04-05T19:17:45.131Z,28.33
2019-04-05T19:20:12.546Z,26.93
2019-04-05T19:22:39.996Z,25.90
2019-04-05T19:25:07.445Z,28.93
2019-04-05T19:27:34.926Z,28.17
2019-04-05T19:49:41.879Z,34.50
2019-04-05T19:52:09.358Z,33.17
2019-04-05T19:54:36.794Z,34.33
2019-04-05T19:57:04.232Z,34.07
2019-04-05T19:59:31.755Z,36.00
2019-04-05T20:01:59.166Z,35.73
2019-04-05T20:04:26.697Z,34.03
2019-04-05T20:06:58.587Z,34.23
2019-04-05T20:09:21.520Z,34.13
2019-04-05T20:11:48.966Z,34.00
2019-04-05T20:14:16.435Z,34.80
2019-04-05T20:16:43.919Z,36.63
2019-04-05T20:19:11.388Z,34.10
2019-04-05T20:21:38.805Z,33.87
2019-04-05T20:24:14.018Z,34.17
2019-04-05T20:26:36.597Z,34.07
2019-04-05T20:29:04.052Z,35.47
2019-04-05T20:31:31.469Z,33.03
2019-04-05T20:33:58.924Z,33.13
2019-04-05T20:36:26.343Z,32.53
2019-04-05T20:38:53.821Z,30.90
2019-04-05T20:41:21.298Z,32.30
2019-04-05T20:43:48.731Z,32.13
2019-04-05T20:46:16.200Z,29.80
2019-04-05T20:48:43.629Z,30.47
2019-04-05T20:51:11.052Z,30.93
2019-04-05T20:53:38.529Z,29.77
2019-04-05T20:56:05.983Z,30.47
2019-04-05T20:58:33.443Z,28.70
2019-04-05T21:01:01.124Z,29.53
2019-04-05T21:03:28.669Z,29.73
2019-04-05T21:05:56.069Z,28.20
2019-04-05T21:08:23.487Z,29.70
2019-04-05T21:10:50.940Z,29.87
2019-04-05T21:13:18.384Z,29.93
2019-04-05T21:15:45.818Z,30.40
2019-04-05T21:18:13.247Z,29.30
2019-04-05T21:20:41.764Z,31.00
2019-04-05T21:23:08.191Z,31.30
2019-04-05T21:25:35.668Z,29.97
2019-04-05T21:28:03.387Z,31.27
2019-04-05T21:30:30.816Z,29.30
2019-04-05T21:32:58.386Z,30.20
2019-04-05T21:35:26.069Z,29.80
2019-04-05T21:37:53.624Z,30.27
2019-04-05T21:40:21.088Z,31.60
2019-04-05T21:42:48.630Z,31.67
2019-04-05T21:45:16.129Z,32.23
2019-04-05T21:47:43.613Z,32.67
2019-04-05T21:50:11.082Z,31.77
2019-04-05T21:52:38.575Z,33.93
2019-04-05T21:55:06.081Z,32.23
2019-04-05T21:57:33.591Z,31.97
2019-04-05T22:00:01.068Z,32.93
2019-04-05T22:02:28.604Z,33.07
2019-04-05T22:04:56.093Z,31.57
2019-04-05T22:07:23.616Z,33.77
2019-04-05T22:09:51.082Z,34.87
2019-04-05T22:15:05.505Z,33.47
2019-04-05T22:17:34.331Z,34.70
2019-04-05T22:20:02.274Z,35.13
2019-04-05T22:22:30.154Z,34.70
2019-04-05T22:24:59.408Z,32.87
2019-04-05T22:27:25.111Z,37.17
2019-04-05T22:29:52.647Z,37.07
2019-04-05T22:32:20.504Z,36.07
2019-04-05T22:34:48.014Z,36.20
2019-04-05T22:37:15.528Z,34.67
2019-04-05T22:39:43.040Z,34.53
2019-04-05T22:42:10.612Z,34.13
2019-04-05T22:44:41.413Z,35.30
2019-04-05T22:47:05.663Z,37.13
2019-04-05T22:49:33.152Z,37.80
2019-04-05T22:52:00.734Z,37.07
2019-04-05T22:54:28.330Z,36.70
2019-04-05T22:56:55.855Z,36.30
2019-04-05T22:59:23.352Z,37.27
2019-04-05T23:01:50.898Z,37.93
2019-04-05T23:04:18.403Z,38.10
2019-04-05T23:06:45.909Z,38.73
2019-04-05T23:09:13.512Z,37.30
2019-04-05T23:11:41.021Z,38.93
2019-04-05T23:14:08.893Z,38.03
2019-04-05T23:16:36.377Z,37.30
2019-04-05T23:19:03.880Z,37.77
2019-04-05T23:21:31.393Z,39.40
2019-04-05T23:23:58.895Z,38.93
2019-04-05T23:26:28.777Z,38.13
2019-04-05T23:28:53.909Z,40.17
2019-04-05T23:31:21.396Z,41.70
2019-04-05T23:33:48.913Z,40.57
2019-04-05T23:36:16.385Z,40.23
2019-04-05T23:38:43.900Z,40.90
2019-04-05T23:41:11.400Z,40.80
2019-04-05T23:43:38.878Z,40.83
2019-04-05T23:46:06.395Z,39.87
2019-04-05T23:48:33.877Z,40.40
2019-04-05T23:51:01.430Z,41.90
2019-04-05T23:53:28.919Z,40.83
2019-04-05T23:55:56.477Z,43.50
2019-04-05T23:58:23.917Z,43.40
